Time;durP1;ratioP1;P1;durP2;ratioP2;P2;SDS_P1;SDS_P2;PMS_P1;PMS_P2;Temp;Humidity;BMP_temperature;BMP_pressure;BME280_temperature;BME280_humidity;BME280_pressure;Samples;Min_cycle;Max_cycle;Signal;HPM_P1;HPM_P2
2023/07/16 00:00:47;;;;;;;7.37;1.67;;;18.50;1.00;;;;;;5070553;28;20403;-71
2023/07/16 00:03:14;;;;;;;6.63;1.88;;;18.50;1.00;;;;;;5071264;28;20400;-71
2023/07/16 00:05:39;;;;;;;8.70;1.90;;;18.40;99.90;;;;;;5070524;28;20395;-71
2023/07/16 00:08:05;;;;;;;7.40;1.75;;;18.40;1.00;;;;;;5071280;28;20779;-71
2023/07/16 00:10:35;;;;;;;7.37;1.57;;;18.40;99.90;;;;;;5070611;28;20407;-71
2023/07/16 00:13:00;;;;;;;8.30;1.80;;;18.40;99.90;;;;;;5071038;28;20399;-71
2023/07/16 00:15:26;;;;;;;7.80;1.80;;;18.30;99.90;;;;;;5069674;28;20714;-71
2023/07/16 00:17:52;;;;;;;7.43;1.77;;;18.30;99.90;;;;;;5070909;28;20435;-72
2023/07/16 00:20:18;;;;;;;7.80;1.90;;;18.30;99.90;;;;;;5070504;28;20465;-71
2023/07/16 00:22:43;;;;;;;6.93;1.37;;;18.30;99.90;;;;;;5070967;28;20412;-71
2023/07/16 00:25:09;;;;;;;7.38;1.58;;;18.20;1.00;;;;;;5070613;28;20748;-71
2023/07/16 00:27:35;;;;;;;7.30;1.67;;;18.20;1.00;;;;;;5070906;28;20468;-71
2023/07/16 00:30:00;;;;;;;7.50;1.80;;;18.00;1.00;;;;;;5070094;28;20399;-71
2023/07/16 00:32:26;;;;;;;7.25;2.08;;;18.00;1.00;;;;;;5070521;28;20434;-71
2023/07/16 00:34:51;;;;;;;8.33;2.17;;;18.00;1.00;;;;;;5070270;28;20415;-71
2023/07/16 00:37:17;;;;;;;6.53;1.52;;;17.90;1.00;;;;;;5035764;28;20458;-71
2023/07/16 00:39:43;;;;;;;7.22;2.08;;;17.90;1.00;;;;;;5069253;28;20464;-71
2023/07/16 00:42:08;;;;;;;7.83;2.00;;;17.80;1.00;;;;;;5051345;28;20787;-71
2023/07/16 00:44:34;;;;;;;5.28;1.80;;;17.80;1.00;;;;;;5070174;28;20447;-71
2023/07/16 00:46:59;;;;;;;6.57;1.47;;;17.80;1.00;;;;;;5069432;28;20420;-71
2023/07/16 00:49:26;;;;;;;10.43;1.95;;;17.80;1.00;;;;;;5070091;28;21168;-71
2023/07/16 00:51:52;;;;;;;8.45;2.00;;;17.70;1.00;;;;;;5085771;28;20460;-71
2023/07/16 00:54:19;;;;;;;7.47;1.85;;;17.70;1.00;;;;;;5069564;28;20410;-71
2023/07/16 00:56:44;;;;;;;7.30;1.95;;;17.70;1.00;;;;;;5085416;28;20423;-71
2023/07/16 00:59:10;;;;;;;7.25;2.03;;;17.60;1.00;;;;;;5085605;28;20415;-71
2023/07/16 01:01:38;;;;;;;7.50;1.93;;;17.60;1.00;;;;;;5068676;28;20395;-71
2023/07/16 01:04:04;;;;;;;8.88;2.05;;;17.60;1.00;;;;;;5070207;28;20486;-71
2023/07/16 01:06:34;;;;;;;6.28;2.08;;;17.60;1.00;;;;;;5069695;28;20537;-71
2023/07/16 01:09:08;;;;;;;8.05;2.30;;;17.60;1.00;;;;;;5070369;28;20418;-71
2023/07/16 01:11:35;;;;;;;6.63;2.20;;;17.50;1.00;;;;;;5070053;28;20411;-71
2023/07/16 01:14:03;;;;;;;8.50;1.90;;;17.60;1.00;;;;;;5068999;28;20415;-71
2023/07/16 01:16:28;;;;;;;8.60;2.20;;;17.50;1.00;;;;;;5069573;28;20435;-71
2023/07/16 01:18:54;;;;;;;7.35;1.73;;;17.50;1.00;;;;;;5069583;28;21031;-71
2023/07/16 01:21:22;;;;;;;7.33;1.83;;;17.50;1.00;;;;;;5069619;28;20800;-71
2023/07/16 01:23:48;;;;;;;9.02;1.95;;;17.50;1.00;;;;;;5069659;28;20504;-71
2023/07/16 01:26:33;;;;;;;8.07;2.00;;;17.50;1.00;;;;;;5068222;28;20933;-71
2023/07/16 01:29:20;;;;;;;6.97;2.00;;;17.50;1.00;;;;;;5051677;28;20430;-71
2023/07/16 01:31:49;;;;;;;8.23;2.33;;;17.40;1.00;;;;;;5069222;28;20426;-73
2023/07/16 01:34:15;;;;;;;7.93;2.47;;;17.40;1.00;;;;;;5069558;28;21154;-71
2023/07/16 01:36:42;;;;;;;8.98;2.22;;;17.50;1.00;;;;;;5084754;28;20531;-71
2023/07/16 01:39:07;;;;;;;10.43;2.60;;;17.40;1.00;;;;;;5069120;28;20395;-71
2023/07/16 01:41:33;;;;;;;10.70;2.45;;;17.50;1.00;;;;;;5069114;28;20396;-71
2023/07/16 01:43:58;;;;;;;8.40;2.40;;;17.50;1.00;;;;;;5069065;28;20439;-71
2023/07/16 01:46:25;;;;;;;8.93;2.50;;;17.50;1.00;;;;;;5069330;28;20399;-71
2023/07/16 01:48:50;;;;;;;9.68;2.05;;;17.50;1.00;;;;;;5069308;28;20407;-71
2023/07/16 01:51:16;;;;;;;8.67;2.40;;;17.50;1.00;;;;;;5068774;28;20765;-71
2023/07/16 01:53:42;;;;;;;9.15;2.40;;;17.50;1.00;;;;;;5068953;28;20399;-71
2023/07/16 01:56:08;;;;;;;7.10;2.17;;;17.50;1.00;;;;;;5068206;28;20415;-71
2023/07/16 01:58:34;;;;;;;6.35;2.35;;;17.50;1.00;;;;;;5061332;28;20402;-71
2023/07/16 02:00:59;;;;;;;10.23;1.90;;;17.50;1.00;;;;;;5067604;28;20408;-71
2023/07/16 02:03:25;;;;;;;7.53;1.87;;;17.50;1.00;;;;;;5068800;28;20396;-69
2023/07/16 02:05:51;;;;;;;8.40;2.20;;;17.40;1.00;;;;;;5066074;28;20487;-70
2023/07/16 02:08:17;;;;;;;7.85;2.17;;;17.40;1.00;;;;;;5062981;28;20412;-71
2023/07/16 02:10:43;;;;;;;9.50;2.13;;;17.40;20.70;;;;;;5050598;28;20399;-70
2023/07/16 02:13:09;;;;;;;9.43;1.90;;;17.30;71.70;;;;;;5067993;28;20411;-70
2023/07/16 02:15:35;;;;;;;6.07;1.92;;;17.30;99.90;;;;;;5067536;28;20485;-70
2023/07/16 02:18:00;;;;;;;7.43;2.20;;;17.30;99.90;;;;;;5067030;28;20431;-70
2023/07/16 02:20:26;;;;;;;6.73;1.80;;;17.20;99.90;;;;;;5067053;28;20419;-70
2023/07/16 02:22:51;;;;;;;8.73;2.45;;;17.20;1.00;;;;;;5067507;28;20414;-70
2023/07/16 02:25:17;;;;;;;7.13;2.00;;;17.10;1.00;;;;;;5083471;28;21353;-70
2023/07/16 02:27:43;;;;;;;7.63;2.20;;;17.10;1.00;;;;;;5061212;28;20405;-70
2023/07/16 02:30:08;;;;;;;8.33;2.33;;;17.10;99.90;;;;;;5068037;28;20411;-70
2023/07/16 02:32:34;;;;;;;10.93;2.50;;;17.10;1.00;;;;;;5068157;28;20802;-70
2023/07/16 02:35:00;;;;;;;7.47;2.40;;;17.00;99.90;;;;;;5067960;28;20412;-70
2023/07/16 02:37:26;;;;;;;9.20;2.30;;;17.00;99.90;;;;;;5067588;28;20431;-70
2023/07/16 02:39:51;;;;;;;7.95;2.03;;;16.90;99.90;;;;;;5067720;28;20761;-70
2023/07/16 02:42:17;;;;;;;7.57;2.37;;;16.90;99.90;;;;;;5068096;28;20415;-70
2023/07/16 02:44:44;;;;;;;8.33;2.20;;;16.90;99.90;;;;;;5067314;28;21334;-70
2023/07/16 02:47:13;;;;;;;8.20;2.10;;;16.90;99.90;;;;;;5068215;28;20494;-70
2023/07/16 02:49:39;;;;;;;9.20;2.30;;;16.90;1.00;;;;;;5068074;28;20407;-70
2023/07/16 02:52:05;;;;;;;7.63;2.22;;;16.90;99.90;;;;;;5067615;28;21002;-71
2023/07/16 02:54:31;;;;;;;7.78;2.40;;;16.90;99.90;;;;;;5049734;28;20763;-71
2023/07/16 02:56:58;;;;;;;6.60;2.20;;;16.90;99.90;;;;;;5049775;28;20447;-71
2023/07/16 02:59:24;;;;;;;7.45;2.92;;;16.90;99.90;;;;;;5067756;28;20404;-71
2023/07/16 03:01:50;;;;;;;6.13;2.67;;;16.90;99.90;;;;;;5049658;28;20408;-71
2023/07/16 03:04:16;;;;;;;9.63;3.08;;;16.90;99.90;;;;;;5067596;28;20439;-71
2023/07/16 03:06:42;;;;;;;8.83;3.13;;;16.90;99.90;;;;;;5049670;28;20443;-71
2023/07/16 03:09:07;;;;;;;7.28;2.78;;;16.90;99.90;;;;;;5067353;28;20403;-70
2023/07/16 03:11:33;;;;;;;8.27;3.40;;;16.80;17.70;;;;;;5049383;28;20407;-70
2023/07/16 03:13:58;;;;;;;9.63;2.95;;;16.90;1.00;;;;;;5067220;28;20408;-70
2023/07/16 03:16:24;;;;;;;9.33;3.20;;;16.90;99.90;;;;;;5067043;28;20924;-70
2023/07/16 03:18:50;;;;;;;9.57;3.30;;;16.90;1.00;;;;;;5047088;28;20469;-70
2023/07/16 03:21:15;;;;;;;7.47;3.67;;;16.90;99.90;;;;;;5026549;28;20418;-70
2023/07/16 03:23:41;;;;;;;8.53;2.90;;;16.90;99.90;;;;;;5067083;28;20454;-70
2023/07/16 03:26:06;;;;;;;9.77;3.22;;;16.90;99.90;;;;;;5067491;28;20399;-70
2023/07/16 03:28:32;;;;;;;7.63;3.10;;;17.00;35.70;;;;;;5067327;28;20742;-70
2023/07/16 03:30:57;;;;;;;9.10;2.97;;;16.90;41.50;;;;;;5067458;28;20561;-70
2023/07/16 03:33:23;;;;;;;10.15;3.38;;;16.90;1.00;;;;;;5066967;28;20765;-70
2023/07/16 03:35:49;;;;;;;8.20;3.17;;;17.00;1.00;;;;;;5067863;28;20396;-70
2023/07/16 03:38:15;;;;;;;8.60;3.00;;;17.00;1.00;;;;;;5082441;28;20821;-70
2023/07/16 03:40:45;;;;;;;9.13;3.53;;;17.00;99.90;;;;;;5049210;28;21007;-70
2023/07/16 03:43:11;;;;;;;9.05;3.17;;;17.00;99.90;;;;;;5066113;28;20436;-70
2023/07/16 03:45:37;;;;;;;10.03;3.33;;;17.00;99.90;;;;;;5067442;28;20411;-70
2023/07/16 03:48:02;;;;;;;10.15;3.22;;;17.00;99.90;;;;;;5066642;28;20415;-70
2023/07/16 03:50:28;;;;;;;9.67;3.50;;;17.00;99.90;;;;;;5067037;28;20404;-70
2023/07/16 03:52:54;;;;;;;7.80;3.00;;;17.00;99.90;;;;;;5080401;28;20419;-70
2023/07/16 03:55:19;;;;;;;11.30;3.30;;;17.00;99.90;;;;;;5044460;28;20408;-70
2023/07/16 03:57:45;;;;;;;8.90;3.15;;;17.10;99.90;;;;;;5066638;28;20430;-70
2023/07/16 04:00:11;;;;;;;10.00;3.37;;;17.10;99.90;;;;;;5049021;28;20481;-70
2023/07/16 04:02:36;;;;;;;7.75;3.28;;;17.10;99.90;;;;;;5067001;28;20411;-71
2023/07/16 04:05:03;;;;;;;9.30;3.17;;;17.10;99.90;;;;;;5067367;28;20414;-70
2023/07/16 04:07:28;;;;;;;9.13;3.63;;;17.10;99.90;;;;;;5066414;28;20422;-70
2023/07/16 04:09:54;;;;;;;8.18;3.58;;;17.10;99.90;;;;;;5049485;28;20407;-70
2023/07/16 04:12:20;;;;;;;9.63;3.10;;;17.10;99.90;;;;;;5046902;28;20934;-70
2023/07/16 04:14:46;;;;;;;8.45;3.60;;;17.10;99.90;;;;;;5077968;28;20404;-70
2023/07/16 04:17:12;;;;;;;9.25;3.72;;;17.10;99.90;;;;;;5066281;28;20526;-70
2023/07/16 04:19:38;;;;;;;12.33;3.40;;;17.10;99.90;;;;;;5048926;28;20537;-70
2023/07/16 04:22:04;;;;;;;9.93;3.20;;;17.10;99.90;;;;;;5066363;28;20429;-70
2023/07/16 04:24:30;;;;;;;9.70;3.33;;;17.20;99.90;;;;;;5067799;28;20429;-70
2023/07/16 04:26:56;;;;;;;8.90;3.30;;;17.20;99.90;;;;;;5070381;28;20831;-71
2023/07/16 04:29:21;;;;;;;9.47;3.57;;;17.20;99.90;;;;;;5052462;28;20884;-71
2023/07/16 04:31:47;;;;;;;9.45;3.63;;;17.20;99.90;;;;;;5069680;28;20412;-71
2023/07/16 04:34:13;;;;;;;8.30;3.47;;;17.20;99.90;;;;;;5070151;28;20399;-70
2023/07/16 04:36:39;;;;;;;10.20;3.30;;;17.20;99.90;;;;;;5070138;28;21045;-71
2023/07/16 04:39:04;;;;;;;9.98;3.50;;;17.20;99.90;;;;;;5069555;28;20479;-70
2023/07/16 04:41:30;;;;;;;9.60;3.85;;;17.20;99.90;;;;;;5069791;28;20439;-70
2023/07/16 04:43:56;;;;;;;10.13;3.53;;;17.30;99.90;;;;;;5070100;28;20430;-71
2023/07/16 04:46:22;;;;;;;11.23;3.80;;;17.30;99.90;;;;;;5084925;28;20415;-70
2023/07/16 04:48:47;;;;;;;9.30;3.50;;;17.30;99.90;;;;;;5070016;28;20481;-70
2023/07/16 04:51:13;;;;;;;9.87;4.17;;;17.40;99.90;;;;;;5068197;28;20951;-70
2023/07/16 04:53:39;;;;;;;11.88;4.07;;;17.40;99.90;;;;;;5070010;28;20777;-71
2023/07/16 04:56:10;;;;;;;10.83;3.77;;;17.40;99.90;;;;;;5069795;28;20438;-70
2023/07/16 04:58:35;;;;;;;9.07;4.07;;;17.50;99.90;;;;;;5068494;28;20412;-70
2023/07/16 05:01:01;;;;;;;13.47;4.10;;;17.50;99.90;;;;;;5069117;28;20414;-70
2023/07/16 05:03:26;;;;;;;6.75;3.50;;;17.60;99.90;;;;;;5070032;28;20519;-70
2023/07/16 05:05:52;;;;;;;9.13;4.30;;;17.60;99.90;;;;;;5069750;28;20461;-70
2023/07/16 05:08:17;;;;;;;12.57;4.13;;;17.60;99.90;;;;;;5069934;28;20762;-70
2023/07/16 05:10:43;;;;;;;11.40;3.90;;;17.70;99.90;;;;;;5069568;28;20512;-71
2023/07/16 05:13:09;;;;;;;12.40;4.70;;;17.70;99.90;;;;;;5051124;28;20430;-70
2023/07/16 05:15:34;;;;;;;10.82;3.95;;;17.70;99.90;;;;;;5069645;28;20431;-71
2023/07/16 05:18:00;;;;;;;9.53;3.90;;;17.80;99.90;;;;;;5069049;28;20430;-70
2023/07/16 05:20:25;;;;;;;11.30;4.50;;;17.80;99.90;;;;;;5069026;28;20800;-71
2023/07/16 05:22:51;;;;;;;9.00;3.67;;;17.80;99.90;;;;;;5069713;28;20403;-70
2023/07/16 05:25:17;;;;;;;12.27;4.20;;;17.80;99.90;;;;;;5068887;28;20403;-71
2023/07/16 05:27:42;;;;;;;9.90;3.97;;;17.90;99.90;;;;;;5069616;28;20403;-71
2023/07/16 05:30:08;;;;;;;9.10;4.07;;;17.90;99.90;;;;;;5069352;28;20785;-70
2023/07/16 05:32:34;;;;;;;9.38;4.15;;;18.00;99.90;;;;;;5069323;28;20431;-72
2023/07/16 05:35:00;;;;;;;11.15;4.18;;;17.90;99.90;;;;;;5068480;28;20407;-70
2023/07/16 05:37:26;;;;;;;9.27;3.83;;;18.00;99.90;;;;;;5069438;28;20430;-71
2023/07/16 05:39:52;;;;;;;11.30;4.00;;;18.00;99.90;;;;;;5066494;28;21034;-71
2023/07/16 05:42:17;;;;;;;10.53;3.80;;;18.00;99.90;;;;;;5061511;28;20399;-70
2023/07/16 05:44:44;;;;;;;9.70;3.67;;;18.10;99.90;;;;;;5068739;28;20403;-71
2023/07/16 05:47:10;;;;;;;9.98;3.38;;;18.10;99.90;;;;;;5050624;28;20426;-71
2023/07/16 05:49:35;;;;;;;9.38;3.55;;;18.20;99.90;;;;;;5068853;28;20400;-71
2023/07/16 05:52:01;;;;;;;10.50;3.57;;;18.20;99.90;;;;;;5068579;28;20414;-71
2023/07/16 05:54:26;;;;;;;7.68;3.42;;;18.20;99.90;;;;;;5068907;28;20410;-71
2023/07/16 05:56:53;;;;;;;7.78;3.70;;;18.30;99.90;;;;;;5068960;28;20435;-71
2023/07/16 05:59:18;;;;;;;9.38;3.13;;;18.40;99.90;;;;;;5084146;28;20408;-71
2023/07/16 06:01:44;;;;;;;10.20;3.57;;;18.50;99.90;;;;;;5050957;28;20412;-71
2023/07/16 06:04:09;;;;;;;8.82;3.60;;;18.60;99.90;;;;;;5067996;28;20924;-71
2023/07/16 06:06:35;;;;;;;8.20;3.13;;;18.60;99.90;;;;;;5067980;28;20407;-71
2023/07/16 06:09:01;;;;;;;8.87;3.20;;;18.50;99.90;;;;;;5068629;28;20799;-71
2023/07/16 06:11:26;;;;;;;9.80;3.13;;;18.50;99.90;;;;;;5068762;28;20897;-71
2023/07/16 06:13:55;;;;;;;6.80;2.97;;;18.50;99.90;;;;;;5068149;28;20396;-71
2023/07/16 06:16:21;;;;;;;10.48;3.15;;;18.40;99.90;;;;;;5034165;28;20411;-71
2023/07/16 06:18:46;;;;;;;9.83;3.20;;;18.50;99.90;;;;;;5067698;28;20411;-72
2023/07/16 06:21:12;;;;;;;8.40;3.20;;;18.50;99.90;;;;;;5068574;28;20495;-70
2023/07/16 06:23:38;;;;;;;10.50;3.47;;;18.60;99.90;;;;;;5068249;28;20776;-71
2023/07/16 06:26:04;;;;;;;7.03;2.70;;;18.60;99.90;;;;;;5068521;28;20927;-71
2023/07/16 06:28:30;;;;;;;8.13;3.17;;;18.70;99.90;;;;;;5068086;28;20424;-71
2023/07/16 06:30:55;;;;;;;8.57;2.95;;;18.80;99.90;;;;;;5068527;28;20487;-71
2023/07/16 06:33:21;;;;;;;8.32;2.78;;;18.90;99.90;;;;;;5060369;28;20403;-71
2023/07/16 06:35:47;;;;;;;9.50;3.25;;;18.90;99.90;;;;;;5059590;28;20423;-71
2023/07/16 06:38:14;;;;;;;7.38;2.90;;;19.00;99.90;;;;;;5064896;28;20431;-72
2023/07/16 06:40:45;;;;;;;8.23;3.00;;;19.00;99.90;;;;;;5067084;28;20400;-71
2023/07/16 06:43:10;;;;;;;9.13;3.25;;;19.20;99.90;;;;;;5064573;28;20392;-73
2023/07/16 06:45:36;;;;;;;9.13;3.37;;;19.20;99.90;;;;;;5066505;28;20461;-71
2023/07/16 06:48:02;;;;;;;8.90;3.17;;;19.20;99.90;;;;;;5066369;28;20404;-71
2023/07/16 06:50:27;;;;;;;9.77;3.43;;;19.20;96.10;;;;;;5063168;28;20404;-71
2023/07/16 06:52:53;;;;;;;9.37;3.17;;;19.20;94.60;;;;;;5048799;28;20804;-71
2023/07/16 06:55:19;;;;;;;12.52;3.58;;;19.10;92.30;;;;;;5066624;28;20397;-72
2023/07/16 06:57:44;;;;;;;8.50;3.53;;;19.10;90.90;;;;;;5081612;28;20797;-71
2023/07/16 07:00:11;;;;;;;9.07;3.25;;;19.00;85.60;;;;;;5048223;28;20457;-71
2023/07/16 07:02:36;;;;;;;8.70;3.08;;;19.00;78.40;;;;;;5038516;28;20491;-71
2023/07/16 07:05:02;;;;;;;9.43;3.45;;;19.00;75.70;;;;;;5065312;28;20469;-71
2023/07/16 07:07:28;;;;;;;6.82;3.45;;;19.10;95.90;;;;;;5048426;28;20980;-71
2023/07/16 07:09:53;;;;;;;10.80;3.40;;;19.20;99.90;;;;;;5065890;28;20418;-72
2023/07/16 07:12:19;;;;;;;9.88;3.42;;;19.20;99.90;;;;;;5065523;28;20496;-72
2023/07/16 07:14:47;;;;;;;7.47;3.20;;;19.40;99.90;;;;;;5065345;28;20514;-72
2023/07/16 07:17:12;;;;;;;8.77;3.58;;;19.50;92.60;;;;;;5046597;28;20463;-72
2023/07/16 07:19:38;;;;;;;7.67;3.33;;;19.60;83.30;;;;;;5080850;28;20455;-71
2023/07/16 07:22:03;;;;;;;10.17;3.53;;;19.60;53.90;;;;;;5064405;28;20404;-72
2023/07/16 07:24:29;;;;;;;11.65;3.78;;;19.60;44.20;;;;;;5047271;28;20404;-71
2023/07/16 07:26:54;;;;;;;9.33;3.33;;;19.80;20.30;;;;;;5065160;28;20403;-72
2023/07/16 07:29:20;;;;;;;10.00;3.43;;;19.80;5.20;;;;;;5066837;28;20406;-71
2023/07/16 07:31:46;;;;;;;11.05;3.33;;;19.90;4.60;;;;;;5064413;28;20465;-72
2023/07/16 07:34:11;;;;;;;9.27;4.07;;;20.00;1.00;;;;;;5063127;28;20399;-68
2023/07/16 07:36:37;;;;;;;7.93;3.63;;;20.00;1.00;;;;;;5065687;28;20494;-70
2023/07/16 07:39:02;;;;;;;9.18;3.45;;;20.00;1.00;;;;;;5065091;28;20522;-68
2023/07/16 07:41:28;;;;;;;11.90;3.90;;;20.10;1.00;;;;;;5048027;28;20404;-70
2023/07/16 07:43:53;;;;;;;9.00;3.63;;;20.10;1.00;;;;;;5061962;28;21098;-71
2023/07/16 07:46:19;;;;;;;8.25;3.63;;;20.10;1.00;;;;;;5066092;28;20399;-71
2023/07/16 07:48:45;;;;;;;8.00;3.20;;;20.10;1.00;;;;;;5066404;28;20443;-72
2023/07/16 07:51:11;;;;;;;10.02;3.38;;;20.30;1.00;;;;;;5056918;28;20917;-69
2023/07/16 07:53:37;;;;;;;8.30;3.25;;;20.30;1.00;;;;;;5064706;28;20399;-70
2023/07/16 07:56:03;;;;;;;8.20;3.53;;;20.20;1.00;;;;;;5065983;28;20400;-70
2023/07/16 07:58:28;;;;;;;8.27;3.60;;;20.10;1.00;;;;;;5066051;28;20423;-70
2023/07/16 08:00:54;;;;;;;8.87;3.20;;;20.00;1.00;;;;;;5069025;28;20751;-72
2023/07/16 08:03:19;;;;;;;9.07;3.20;;;19.90;1.00;;;;;;5070044;28;20403;-71
2023/07/16 08:05:48;;;;;;;9.68;3.78;;;19.80;1.00;;;;;;5068967;28;20395;-68
2023/07/16 08:08:14;;;;;;;10.38;3.80;;;19.90;1.00;;;;;;5072242;28;20446;-70
2023/07/16 08:10:40;;;;;;;9.68;3.50;;;20.00;1.00;;;;;;5074741;28;20759;-71
2023/07/16 08:13:06;;;;;;;9.10;3.50;;;20.10;1.00;;;;;;5053257;28;20509;-71
2023/07/16 08:15:31;;;;;;;9.97;4.10;;;20.20;1.00;;;;;;5085537;28;20450;-72
2023/07/16 08:17:59;;;;;;;9.23;3.47;;;20.20;1.00;;;;;;5070880;28;20462;-72
2023/07/16 08:20:25;;;;;;;11.32;3.92;;;20.10;1.00;;;;;;5073144;28;20501;-69
2023/07/16 08:22:51;;;;;;;8.95;3.70;;;20.10;1.00;;;;;;5076055;28;20413;-70
2023/07/16 08:25:17;;;;;;;7.57;3.33;;;20.10;1.00;;;;;;5050634;28;20841;-71
2023/07/16 08:27:42;;;;;;;8.20;3.58;;;20.20;1.00;;;;;;5070637;28;20508;-70
2023/07/16 08:30:08;;;;;;;8.73;3.40;;;20.30;1.00;;;;;;5069723;28;20538;-70
2023/07/16 08:32:34;;;;;;;7.90;3.40;;;20.50;1.00;;;;;;5068785;28;20400;-70
2023/07/16 08:34:59;;;;;;;11.20;3.73;;;20.70;1.00;;;;;;5065182;28;20400;-71
2023/07/16 08:37:25;;;;;;;7.77;3.50;;;20.80;99.90;;;;;;5050964;28;20435;-71
2023/07/16 08:39:53;;;;;;;8.50;3.42;;;20.80;99.90;;;;;;5068793;28;20507;-71
2023/07/16 08:42:19;;;;;;;8.50;3.45;;;20.80;99.90;;;;;;5069068;28;20970;-71
2023/07/16 08:44:45;;;;;;;8.83;3.20;;;20.80;99.90;;;;;;5068468;28;20419;-72
2023/07/16 08:47:10;;;;;;;7.38;3.65;;;20.70;99.90;;;;;;5070252;28;20769;-72
2023/07/16 08:49:39;;;;;;;7.57;3.60;;;20.50;99.90;;;;;;5077253;28;20536;-72
2023/07/16 08:52:06;;;;;;;7.15;3.75;;;20.20;99.90;;;;;;5051306;28;20491;-72
2023/07/16 08:54:32;;;;;;;7.70;3.70;;;19.90;1.00;;;;;;5072229;28;20416;-72
2023/07/16 08:56:57;;;;;;;10.00;3.97;;;19.80;1.00;;;;;;5070188;28;20426;-72
2023/07/16 08:59:24;;;;;;;7.90;3.77;;;19.80;1.00;;;;;;5073723;28;20423;-72
2023/07/16 09:01:49;;;;;;;8.63;3.72;;;19.70;1.00;;;;;;5070516;28;20747;-72
2023/07/16 09:04:16;;;;;;;7.07;3.90;;;19.60;1.00;;;;;;5069839;28;20414;-72
2023/07/16 09:06:42;;;;;;;9.20;4.00;;;19.70;1.00;;;;;;5071466;28;20473;-72
2023/07/16 09:09:08;;;;;;;9.43;3.63;;;19.80;1.00;;;;;;5077745;28;20411;-72
2023/07/16 09:11:33;;;;;;;10.40;3.80;;;20.00;1.00;;;;;;5050275;28;20848;-72
2023/07/16 09:14:03;;;;;;;9.40;3.47;;;20.30;1.00;;;;;;5084955;28;20415;-72
2023/07/16 09:16:33;;;;;;;8.18;3.63;;;20.50;1.00;;;;;;5039147;28;20479;-72
2023/07/16 09:19:17;;;;;;;7.60;3.47;;;20.70;1.00;;;;;;5069786;28;20493;-72
2023/07/16 09:21:42;;;;;;;9.60;3.73;;;20.90;1.00;;;;;;5077722;28;20423;-72
2023/07/16 09:24:08;;;;;;;10.13;3.88;;;21.10;99.90;;;;;;5084617;28;21224;-72
2023/07/16 09:26:37;;;;;;;7.80;3.27;;;21.30;99.90;;;;;;5052807;28;20988;-72
2023/07/16 09:29:07;;;;;;;8.65;4.00;;;21.50;99.90;;;;;;5064426;28;20410;-72
2023/07/16 09:31:32;;;;;;;8.60;3.72;;;21.60;99.90;;;;;;5052142;28;20464;-72
2023/07/16 09:33:58;;;;;;;10.48;3.55;;;21.60;99.90;;;;;;5079844;28;20804;-72
2023/07/16 09:36:27;;;;;;;10.37;3.57;;;21.70;99.90;;;;;;5071749;28;20535;-73
2023/07/16 09:38:58;;;;;;;8.45;3.30;;;21.90;99.90;;;;;;5075352;28;20417;-72
2023/07/16 09:41:24;;;;;;;9.05;3.60;;;22.20;99.90;;;;;;5074942;28;20474;-72
2023/07/16 09:43:50;;;;;;;7.30;3.77;;;22.20;99.90;;;;;;5070173;28;20418;-71
2023/07/16 09:46:16;;;;;;;8.52;3.28;;;22.20;99.90;;;;;;5069893;28;20418;-71
2023/07/16 09:48:41;;;;;;;11.67;3.27;;;22.20;99.90;;;;;;5039237;28;20400;-72
2023/07/16 09:51:12;;;;;;;8.73;3.60;;;22.10;99.90;;;;;;5068140;28;20399;-73
2023/07/16 09:53:41;;;;;;;7.28;3.38;;;22.00;99.90;;;;;;5065167;28;20424;-72
2023/07/16 09:56:09;;;;;;;9.43;3.53;;;21.90;99.90;;;;;;5072098;28;20406;-74
2023/07/16 09:58:35;;;;;;;8.43;3.13;;;21.80;99.90;;;;;;5055615;28;20770;-73
2023/07/16 10:01:03;;;;;;;8.73;3.33;;;21.80;99.90;;;;;;5051820;28;20418;-73
2023/07/16 10:03:29;;;;;;;9.20;3.38;;;21.80;99.90;;;;;;5084743;28;20417;-70
2023/07/16 10:06:06;;;;;;;11.43;3.50;;;21.80;99.90;;;;;;5075195;28;20494;-71
2023/07/16 10:08:34;;;;;;;8.67;3.50;;;21.80;99.90;;;;;;5071115;28;20419;-72
2023/07/16 10:11:00;;;;;;;10.90;3.65;;;21.90;99.90;;;;;;5066397;28;20462;-73
2023/07/16 10:13:26;;;;;;;8.00;3.20;;;22.00;99.90;;;;;;5067372;28;20423;-73
2023/07/16 10:15:54;;;;;;;7.32;3.10;;;22.30;99.90;;;;;;5067816;28;20461;-72
2023/07/16 10:18:38;;;;;;;9.32;3.10;;;22.50;99.90;;;;;;5066991;28;20436;-71
2023/07/16 10:21:08;;;;;;;8.20;3.58;;;22.60;99.90;;;;;;5067236;28;20420;-71
2023/07/16 10:23:39;;;;;;;7.93;3.55;;;22.50;99.90;;;;;;5067237;28;20403;-70
2023/07/16 10:26:06;;;;;;;9.45;3.33;;;22.30;99.90;;;;;;5067856;28;20490;-70
2023/07/16 10:28:36;;;;;;;7.57;3.05;;;22.50;99.90;;;;;;5066748;28;20457;-71
2023/07/16 10:31:01;;;;;;;8.98;3.13;;;22.90;99.90;;;;;;5049059;28;20407;-71
2023/07/16 10:33:27;;;;;;;8.80;2.90;;;23.00;99.90;;;;;;5067456;28;20402;-71
2023/07/16 10:35:53;;;;;;;7.95;3.33;;;23.10;99.90;;;;;;5067020;28;20955;-71
2023/07/16 10:38:19;;;;;;;5.50;2.60;;;23.10;99.90;;;;;;5067196;28;20454;-71
2023/07/16 10:40:45;;;;;;;5.57;2.90;;;23.00;99.90;;;;;;5066838;28;20412;-71
2023/07/16 10:43:14;;;;;;;7.43;2.95;;;22.80;99.90;;;;;;5067269;28;20396;-71
2023/07/16 10:45:40;;;;;;;8.60;3.38;;;22.70;99.90;;;;;;5066503;28;20396;-71
2023/07/16 10:48:06;;;;;;;8.27;3.13;;;22.60;99.90;;;;;;5066921;28;20443;-71
2023/07/16 10:50:35;;;;;;;6.68;3.30;;;23.00;99.90;;;;;;5066771;28;20435;-71
2023/07/16 10:53:01;;;;;;;7.38;3.22;;;23.50;99.90;;;;;;5067036;28;20403;-71
2023/07/16 10:55:29;;;;;;;6.80;3.40;;;23.90;99.90;;;;;;5065835;28;20408;-71
2023/07/16 10:57:56;;;;;;;7.45;3.10;;;24.00;99.90;;;;;;5066716;28;20494;-71
2023/07/16 11:00:22;;;;;;;6.90;2.67;;;23.90;99.90;;;;;;5066895;28;20404;-71
2023/07/16 11:02:50;;;;;;;6.50;3.17;;;23.70;99.90;;;;;;5065131;28;20465;-71
2023/07/16 11:05:16;;;;;;;7.63;2.83;;;23.30;99.90;;;;;;5082688;28;20492;-71
2023/07/16 11:07:51;;;;;;;7.25;3.13;;;23.00;99.90;;;;;;5065147;28;20422;-71
2023/07/16 11:10:18;;;;;;;5.80;3.10;;;22.70;99.90;;;;;;5067323;28;20402;-71
2023/07/16 11:12:44;;;;;;;7.05;3.03;;;22.50;99.90;;;;;;5048657;28;20407;-71
2023/07/16 11:15:10;;;;;;;7.45;3.30;;;22.40;99.90;;;;;;5058964;28;20893;-72
2023/07/16 11:17:39;;;;;;;7.70;3.13;;;22.60;99.90;;;;;;5046159;28;20425;-72
2023/07/16 11:20:07;;;;;;;9.60;3.33;;;23.00;99.90;;;;;;5053405;28;20410;-72
2023/07/16 11:22:38;;;;;;;7.90;3.40;;;23.30;99.90;;;;;;5065165;28;20886;-72
2023/07/16 11:25:11;;;;;;;6.13;2.85;;;23.40;99.90;;;;;;5055961;28;20403;-72
2023/07/16 11:27:39;;;;;;;6.18;2.97;;;23.80;99.90;;;;;;5066360;28;20916;-72
2023/07/16 11:30:06;;;;;;;8.57;3.30;;;24.30;99.90;;;;;;5067036;28;20406;-72
2023/07/16 11:32:34;;;;;;;6.45;2.95;;;24.30;99.90;;;;;;5053002;28;20408;-72
2023/07/16 11:35:02;;;;;;;6.40;3.10;;;24.20;99.90;;;;;;5086716;28;20502;-72
2023/07/16 11:37:29;;;;;;;7.95;3.17;;;24.10;99.90;;;;;;5085788;28;20431;-72
2023/07/16 11:39:59;;;;;;;7.70;2.97;;;24.00;99.90;;;;;;5070720;28;20438;-72
2023/07/16 11:42:39;;;;;;;6.53;2.95;;;23.80;99.90;;;;;;5070347;28;20416;-72
2023/07/16 11:45:14;;;;;;;8.73;3.15;;;23.80;99.90;;;;;;5071268;28;20407;-73
2023/07/16 11:47:40;;;;;;;6.70;3.15;;;23.80;99.90;;;;;;5071158;28;20412;-72
2023/07/16 11:50:07;;;;;;;5.97;2.60;;;23.50;99.90;;;;;;5057772;28;20457;-72
2023/07/16 11:52:32;;;;;;;8.82;2.80;;;23.30;99.90;;;;;;5071983;28;20404;-72
2023/07/16 11:55:05;;;;;;;6.95;2.58;;;23.00;99.90;;;;;;5052727;28;20412;-72
2023/07/16 11:57:30;;;;;;;7.40;3.67;;;22.80;99.90;;;;;;5071049;28;20506;-72
2023/07/16 11:59:56;;;;;;;6.63;2.83;;;22.60;99.90;;;;;;5071391;28;21090;-72
2023/07/16 12:02:22;;;;;;;6.10;3.05;;;22.60;99.90;;;;;;5071625;28;20407;-72
2023/07/16 12:04:48;;;;;;;7.68;2.95;;;22.80;99.90;;;;;;5071895;28;20422;-72
2023/07/16 12:07:14;;;;;;;6.03;2.50;;;23.00;99.90;;;;;;5071224;28;20407;-71
2023/07/16 12:09:40;;;;;;;5.75;2.72;;;23.00;99.90;;;;;;5086449;28;20815;-71
2023/07/16 12:12:06;;;;;;;5.77;2.80;;;23.00;99.90;;;;;;5071535;28;20395;-72
2023/07/16 12:14:32;;;;;;;7.43;3.20;;;22.90;99.90;;;;;;5086693;28;20422;-72
2023/07/16 12:16:58;;;;;;;6.50;2.67;;;22.80;99.90;;;;;;5070338;28;20502;-72
2023/07/16 12:19:24;;;;;;;8.13;3.28;;;22.60;99.90;;;;;;5070585;28;20842;-72
2023/07/16 12:21:50;;;;;;;6.77;2.90;;;22.50;99.90;;;;;;5086376;28;20431;-72
2023/07/16 12:24:16;;;;;;;6.57;3.20;;;22.40;99.90;;;;;;5045783;28;20408;-72
2023/07/16 12:26:41;;;;;;;7.70;3.33;;;22.30;99.90;;;;;;5068952;28;20791;-72
2023/07/16 12:29:07;;;;;;;7.60;3.70;;;22.20;99.90;;;;;;5052302;28;20431;-72
2023/07/16 12:31:33;;;;;;;9.00;3.07;;;22.30;99.90;;;;;;5070818;28;20416;-72
2023/07/16 12:34:01;;;;;;;6.72;3.08;;;22.50;99.90;;;;;;5053372;28;20412;-72
2023/07/16 12:36:27;;;;;;;6.70;3.25;;;22.70;99.90;;;;;;5070309;28;20406;-72
2023/07/16 12:38:53;;;;;;;7.97;3.72;;;22.90;99.90;;;;;;5070727;28;20407;-72
2023/07/16 12:41:19;;;;;;;11.40;4.03;;;22.90;99.90;;;;;;5060717;28;20400;-72
2023/07/16 12:43:45;;;;;;;6.90;3.73;;;22.90;99.90;;;;;;5070258;28;20461;-72